Time;durP1;ratioP1;P1;durP2;ratioP2;P2;SDS_P1;SDS_P2;PMS_P1;PMS_P2;Temp;Humidity;BMP_temperature;BMP_pressure;BME280_temperature;BME280_humidity;BME280_pressure;Samples;Min_cycle;Max_cycle;Signal;HPM_P1;HPM_P2
2023/03/31 00:02:12;;;;;;;7.47;4.38;;;;;;;0.07;76.17;100457.69;10207351;29;20048;-82
2023/03/31 00:07:15;;;;;;;7.20;3.92;;;;;;;0.12;76.98;100455.66;10207224;28;20040;-83
2023/03/31 00:12:16;;;;;;;8.35;4.00;;;;;;;-0.01;76.06;100444.28;10207258;29;20126;-82
2023/03/31 00:17:17;;;;;;;5.57;3.15;;;;;;;0.19;76.44;100449.06;10206282;29;20064;-82
2023/03/31 00:22:20;;;;;;;7.05;3.30;;;;;;;0.15;75.50;100434.53;10205883;29;20050;-82
2023/03/31 00:27:21;;;;;;;8.97;3.97;;;;;;;-0.02;76.01;100453.91;10206691;29;20052;-82
2023/03/31 00:32:22;;;;;;;25.65;12.85;;;;;;;-0.44;76.07;100391.34;10206192;29;20040;-82
2023/03/31 00:37:23;;;;;;;19.00;9.00;;;;;;;-0.21;76.62;100455.97;10207311;29;20050;-82
2023/03/31 00:42:24;;;;;;;15.40;7.72;;;;;;;-0.26;77.23;100471.13;10205640;29;20047;-83
2023/03/31 00:47:28;;;;;;;19.42;8.60;;;;;;;-0.33;78.21;100473.28;10205546;29;20039;-83
2023/03/31 00:52:36;;;;;;;29.85;11.02;;;;;;;-0.27;78.06;100474.63;10205946;29;20076;-83
2023/03/31 00:57:39;;;;;;;32.58;14.68;;;;;;;-0.31;78.09;100475.78;10205243;29;20138;-82
2023/03/31 01:02:54;;;;;;;127.50;47.97;;;;;;;-0.31;77.49;100476.59;10206255;29;20524;-84
2023/03/31 01:07:58;;;;;;;137.38;51.58;;;;;;;-0.40;77.89;100445.03;10205670;29;20515;-84
2023/03/31 01:12:59;;;;;;;103.67;39.57;;;;;;;-0.25;78.46;100483.22;10172112;29;20488;-84
2023/03/31 01:18:02;;;;;;;65.82;25.85;;;;;;;-0.36;79.29;100472.59;10166023;29;20094;-84
2023/03/31 01:23:21;;;;;;;60.58;24.05;;;;;;;-0.26;80.97;100487.63;10180287;29;20078;-84
2023/03/31 01:28:59;;;;;;;52.35;24.13;;;;;;;-0.21;81.17;100489.09;10166165;28;20562;-84
2023/03/31 01:34:03;;;;;;;32.92;14.90;;;;;;;-0.78;80.02;100415.16;10165667;29;20047;-84
2023/03/31 01:39:09;;;;;;;31.30;14.20;;;;;;;-0.29;80.45;100494.81;10165094;29;20044;-84
2023/03/31 01:44:49;;;;;;;51.38;21.45;;;;;;;-0.30;80.02;100503.53;10166327;29;20044;-84
2023/03/31 01:49:49;;;;;;;38.60;18.55;;;;;;;-0.64;78.91;100497.78;10172009;29;20082;-85
2023/03/31 01:54:57;;;;;;;53.53;21.75;;;;;;;-0.81;79.95;100479.69;10172028;29;20102;-86
2023/03/31 02:00:08;;;;;;;43.03;18.88;;;;;;;-0.75;79.83;100514.09;10171438;29;20504;-84
2023/03/31 02:05:19;;;;;;;31.77;14.75;;;;;;;-0.63;80.28;100506.44;10171813;29;20554;-85
2023/03/31 02:10:23;;;;;;;50.45;23.70;;;;;;;-1.06;79.86;100418.59;10172981;29;20044;-86
2023/03/31 02:15:28;;;;;;;40.90;18.40;;;;;;;-0.82;79.07;100507.56;10195336;29;20040;-85
2023/03/31 02:20:31;;;;;;;29.30;14.60;;;;;;;-1.28;79.23;100471.16;10172022;29;20060;-86
2023/03/31 02:26:03;;;;;;;32.05;14.90;;;;;;;-1.54;79.78;100451.81;10171061;29;20411;-85
2023/03/31 02:31:33;;;;;;;29.23;13.65;;;;;;;-1.21;81.30;100515.94;10195844;28;20139;-86
2023/03/31 02:36:35;;;;;;;25.98;12.93;;;;;;;-1.59;80.38;100442.56;10172428;29;20062;-84
2023/03/31 02:41:36;;;;;;;31.23;12.35;;;;;;;-1.57;80.46;100444.16;10196101;29;20053;-85
2023/03/31 02:46:39;;;;;;;22.67;11.23;;;;;;;-1.41;81.64;100458.00;10189052;29;20513;-82
2023/03/31 02:52:01;;;;;;;27.38;10.75;;;;;;;-1.42;83.33;100461.53;10170629;29;20046;-84
2023/03/31 02:57:32;;;;;;;17.90;10.07;;;;;;;-1.12;81.63;100517.19;10189568;28;20467;-84
2023/03/31 03:02:50;;;;;;;18.20;10.35;;;;;;;-1.70;82.09;100438.81;10205749;29;20048;-81
2023/03/31 03:08:05;;;;;;;21.00;10.23;;;;;;;-1.16;82.01;100512.16;10208643;29;20040;-84
2023/03/31 03:13:14;;;;;;;17.92;9.15;;;;;;;-1.06;82.80;100520.25;10208909;29;20070;-83
2023/03/31 03:18:16;;;;;;;16.80;8.77;;;;;;;-1.09;81.15;100523.06;10208367;29;20125;-84
2023/03/31 03:23:17;;;;;;;19.10;9.50;;;;;;;-1.03;80.92;100537.50;10208469;29;20039;-80
2023/03/31 03:28:18;;;;;;;21.58;10.15;;;;;;;-1.06;81.47;100488.16;10204321;29;20054;-80
2023/03/31 03:33:23;;;;;;;19.60;10.80;;;;;;;-0.73;81.12;100519.22;10207800;29;20123;-76
2023/03/31 03:38:24;;;;;;;22.10;10.30;;;;;;;-0.86;80.70;100466.09;10207904;29;20508;-75
2023/03/31 03:43:25;;;;;;;22.65;9.90;;;;;;;-0.02;80.01;100531.41;10238534;28;20067;-77
2023/03/31 03:48:26;;;;;;;21.95;10.32;;;;;;;0.17;79.24;100511.03;10216511;28;20499;-81
2023/03/31 03:53:26;;;;;;;24.60;11.27;;;;;;;0.56;79.46;100529.47;10206677;29;20055;-75
2023/03/31 03:58:27;;;;;;;26.52;13.23;;;;;;;0.73;79.64;100529.22;10232867;29;20105;-76
2023/03/31 04:03:28;;;;;;;26.15;13.15;;;;;;;1.21;79.10;100526.91;10247345;28;20049;-78
2023/03/31 04:08:29;;;;;;;24.23;12.52;;;;;;;1.78;78.69;100531.69;10216021;28;20050;-84
2023/03/31 04:13:29;;;;;;;19.50;10.93;;;;;;;2.74;77.91;100507.38;10207079;28;20130;-80
2023/03/31 04:18:30;;;;;;;19.60;10.13;;;;;;;3.63;77.01;100546.09;10206337;29;20055;-78
2023/03/31 04:23:33;;;;;;;23.15;8.45;;;;;;;3.62;76.42;100485.78;10206738;29;20557;-81
2023/03/31 04:28:36;;;;;;;12.02;7.28;;;;;;;3.99;75.80;100530.22;10205618;29;20044;-78
2023/03/31 04:33:37;;;;;;;18.00;8.30;;;;;;;4.20;75.71;100520.63;10205978;29;20051;-75
2023/03/31 04:38:38;;;;;;;15.60;8.13;;;;;;;4.43;74.75;100484.59;10209536;29;20109;-77
2023/03/31 04:43:39;;;;;;;11.75;7.43;;;;;;;5.12;73.42;100538.59;10222546;28;20074;-76
2023/03/31 04:48:40;;;;;;;10.73;7.30;;;;;;;4.88;72.39;100509.88;10205560;29;20048;-76
2023/03/31 04:53:41;;;;;;;12.95;9.20;;;;;;;5.02;72.18;100560.41;10205987;29;20130;-77
2023/03/31 04:58:43;;;;;;;10.80;8.00;;;;;;;4.98;72.28;100555.53;10205514;29;20067;-77
2023/03/31 05:03:46;;;;;;;15.50;9.40;;;;;;;4.99;71.46;100546.66;10206288;29;20392;-77
2023/03/31 05:08:47;;;;;;;13.88;9.23;;;;;;;4.76;71.55;100485.41;10205024;29;20093;-77
2023/03/31 05:13:48;;;;;;;15.43;8.60;;;;;;;5.33;71.49;100533.34;10204827;29;20097;-77
2023/03/31 05:18:49;;;;;;;12.68;8.35;;;;;;;5.82;70.87;100551.06;10207473;29;20059;-77
2023/03/31 05:23:49;;;;;;;10.70;7.40;;;;;;;6.18;69.83;100544.41;10211965;29;20048;-77
2023/03/31 05:28:53;;;;;;;11.40;7.70;;;;;;;6.49;69.86;100565.47;10212010;29;20055;-78
2023/03/31 05:33:54;;;;;;;9.40;6.30;;;;;;;6.60;69.21;100525.72;10212406;29;20036;-77
2023/03/31 05:38:55;;;;;;;7.10;5.50;;;;;;;7.03;68.39;100553.56;10211705;29;20686;-77
2023/03/31 05:43:55;;;;;;;7.18;5.35;;;;;;;7.28;67.07;100551.28;10211762;29;20038;-76
2023/03/31 05:48:57;;;;;;;8.13;5.38;;;;;;;7.54;66.52;100525.09;10211015;29;20043;-77
2023/03/31 05:53:58;;;;;;;9.02;5.82;;;;;;;7.69;65.73;100491.91;10211226;29;20036;-77
2023/03/31 05:59:00;;;;;;;6.80;4.50;;;;;;;7.84;63.98;100433.22;10209616;29;20036;-77
2023/03/31 06:04:00;;;;;;;6.65;4.30;;;;;;;8.84;63.38;100531.06;10210479;29;20039;-77
2023/03/31 06:09:01;;;;;;;7.07;4.38;;;;;;;9.04;62.61;100541.50;10211255;28;20044;-77
2023/03/31 06:14:02;;;;;;;7.45;4.38;;;;;;;8.74;61.01;100456.16;10209975;29;20554;-78
2023/03/31 06:19:03;;;;;;;8.50;4.85;;;;;;;9.23;60.17;100521.94;10209860;29;20060;-77
2023/03/31 06:24:04;;;;;;;5.90;4.43;;;;;;;9.32;59.74;100460.84;10210363;28;20040;-77
2023/03/31 06:29:04;;;;;;;7.03;4.13;;;;;;;9.98;58.57;100519.53;10209707;29;20105;-75
2023/03/31 06:34:05;;;;;;;7.45;3.78;;;;;;;9.93;57.26;100488.19;10209968;29;20127;-76
2023/03/31 06:39:06;;;;;;;4.78;3.60;;;;;;;10.09;56.73;100491.88;10209844;29;20438;-75
2023/03/31 06:44:07;;;;;;;6.60;3.78;;;;;;;10.52;55.99;100510.25;10209180;29;20047;-75
2023/03/31 06:49:07;;;;;;;5.22;3.40;;;;;;;10.88;55.38;100503.81;10209615;29;20050;-76
2023/03/31 06:54:08;;;;;;;6.93;3.30;;;;;;;10.89;54.33;100505.50;10209210;29;20403;-75
2023/03/31 06:59:09;;;;;;;5.15;3.20;;;;;;;11.02;53.70;100497.00;10208659;29;20522;-75
2023/03/31 07:04:10;;;;;;;5.80;3.63;;;;;;;11.01;53.30;100492.66;10208555;29;20414;-75
2023/03/31 07:09:11;;;;;;;5.32;3.50;;;;;;;11.21;52.86;100486.00;10208672;29;20066;-76
2023/03/31 07:14:12;;;;;;;5.10;2.92;;;;;;;11.51;52.12;100491.59;10209024;29;20496;-75
2023/03/31 07:19:14;;;;;;;5.85;3.17;;;;;;;11.57;52.02;100481.09;10208567;29;20059;-76
2023/03/31 07:24:15;;;;;;;9.35;3.28;;;;;;;11.54;51.29;100496.56;10207885;29;20059;-75
2023/03/31 07:29:15;;;;;;;22.60;3.67;;;;;;;11.71;51.45;100482.22;10207775;29;20623;-76
2023/03/31 07:34:16;;;;;;;5.57;3.53;;;;;;;11.63;51.34;100415.72;10207887;29;20035;-76
2023/03/31 07:39:17;;;;;;;6.80;3.28;;;;;;;12.17;50.03;100455.75;10207904;29;20039;-76
2023/03/31 07:44:19;;;;;;;4.05;2.58;;;;;;;12.21;49.62;100441.09;10207876;29;20047;-76
2023/03/31 07:49:20;;;;;;;4.40;2.42;;;;;;;12.60;47.60;100457.97;10207234;29;20078;-77
2023/03/31 07:54:20;;;;;;;10.07;2.88;;;;;;;12.77;46.60;100415.00;10207733;29;20039;-78
2023/03/31 07:59:21;;;;;;;4.18;2.67;;;;;;;12.65;47.09;100453.75;10206877;29;20052;-76
2023/03/31 08:04:22;;;;;;;4.20;2.53;;;;;;;12.59;47.16;100422.47;10207250;29;20040;-76
2023/03/31 08:09:22;;;;;;;5.07;2.95;;;;;;;13.05;46.33;100425.06;10206380;29;20048;-76
2023/03/31 08:14:23;;;;;;;5.32;3.33;;;;;;;13.07;46.36;100393.69;10206456;29;20095;-76
2023/03/31 08:19:24;;;;;;;3.53;2.70;;;;;;;13.40;45.38;100412.03;10206333;29;20064;-77
2023/03/31 08:24:25;;;;;;;4.40;2.45;;;;;;;13.61;44.29;100432.63;10206870;29;20051;-76
2023/03/31 08:29:28;;;;;;;5.53;2.70;;;;;;;13.60;43.97;100431.81;10205908;29;20055;-77
2023/03/31 08:34:29;;;;;;;4.28;2.40;;;;;;;13.60;43.76;100441.69;10206734;29;20491;-76
2023/03/31 08:39:30;;;;;;;5.45;2.85;;;;;;;13.69;43.97;100433.38;10206869;29;20105;-75
2023/03/31 08:44:58;;;;;;;5.25;2.60;;;;;;;13.30;42.48;100366.16;10205644;29;20043;-75
2023/03/31 08:50:05;;;;;;;4.35;2.47;;;;;;;13.77;43.10;100418.28;10206389;29;20414;-77
2023/03/31 08:55:12;;;;;;;4.00;2.13;;;;;;;13.54;43.07;100421.06;10210188;29;20591;-75
2023/03/31 09:00:16;;;;;;;3.63;2.50;;;;;;;13.56;43.01;100366.50;10212383;29;20040;-75
2023/03/31 09:05:25;;;;;;;4.18;2.33;;;;;;;14.69;42.93;100436.31;10212238;29;20067;-77
2023/03/31 09:10:36;;;;;;;3.90;2.70;;;;;;;15.08;41.25;100430.47;10211881;29;20063;-75
2023/03/31 09:15:50;;;;;;;4.38;2.80;;;;;;;15.13;40.74;100417.31;10212657;29;20075;-76
2023/03/31 09:20:52;;;;;;;;;;;;;;;15.30;41.88;100431.22;10213064;29;20130;-76
2023/03/31 09:25:56;;;;;;;3.72;2.30;;;;;;;14.99;40.47;100423.59;10213197;29;19923;-76
2023/03/31 09:30:57;;;;;;;4.47;2.50;;;;;;;14.61;40.14;100381.97;10212443;29;20496;-76
2023/03/31 09:36:05;;;;;;;3.78;2.25;;;;;;;14.83;39.86;100419.34;10211298;29;20567;-76
2023/03/31 09:41:06;;;;;;;3.55;2.05;;;;;;;14.54;40.39;100407.00;10211138;29;20455;-76
2023/03/31 09:46:30;;;;;;;3.25;1.80;;;;;;;15.20;39.09;100407.47;10211559;29;20071;-76
2023/03/31 09:51:36;;;;;;;2.47;1.40;;;;;;;15.45;37.21;100391.75;10211560;29;20620;-76
2023/03/31 09:56:42;;;;;;;3.30;1.50;;;;;;;15.46;35.95;100347.88;10211116;29;20055;-76
2023/03/31 10:01:45;;;;;;;3.22;1.77;;;;;;;15.46;36.39;100304.22;10210413;29;20415;-76
2023/03/31 10:06:47;;;;;;;4.85;1.70;;;;;;;16.01;36.35;100389.94;10209349;29;20054;-76
2023/03/31 10:12:21;;;;;;;2.53;1.38;;;;;;;15.56;36.18;100389.56;10210037;29;20054;-75
2023/03/31 10:17:26;;;;;;;2.33;1.30;;;;;;;15.11;34.37;100344.44;10237215;28;20054;-76
2023/03/31 10:22:30;;;;;;;4.68;1.80;;;;;;;15.29;34.98;100352.78;10250030;28;20051;-75
2023/03/31 10:27:32;;;;;;;2.60;1.40;;;;;;;15.00;35.93;100383.28;10249369;28;20048;-75
2023/03/31 10:32:37;;;;;;;2.90;1.85;;;;;;;14.47;36.38;100299.16;10249074;28;20450;-75
2023/03/31 10:37:38;;;;;;;4.50;1.50;;;;;;;15.44;35.52;100375.91;10249561;28;20057;-75
2023/03/31 10:42:39;;;;;;;2.88;1.48;;;;;;;15.47;34.54;100354.91;10249972;28;20043;-76
2023/03/31 10:47:40;;;;;;;3.97;1.42;;;;;;;15.74;34.08;100361.22;10249273;28;20509;-76
2023/03/31 10:52:46;;;;;;;4.15;1.33;;;;;;;15.92;33.18;100366.00;10249038;28;20059;-76
2023/03/31 10:57:55;;;;;;;3.35;1.60;;;;;;;15.60;32.91;100294.41;10249074;28;20105;-76
2023/03/31 11:03:26;;;;;;;2.17;1.20;;;;;;;16.03;32.98;100377.16;10248392;28;20040;-76
2023/03/31 11:08:58;;;;;;;3.50;1.10;;;;;;;15.03;33.44;100387.41;10248570;28;20040;-75
2023/03/31 11:14:19;;;;;;;2.75;1.13;;;;;;;14.30;33.81;100365.44;10249054;28;20039;-75
2023/03/31 11:19:47;;;;;;;2.72;1.05;;;;;;;15.04;32.25;100381.84;10248602;28;20063;-76
2023/03/31 11:25:06;;;;;;;3.35;1.45;;;;;;;14.58;33.30;100368.97;10247834;28;20050;-75
2023/03/31 11:30:26;;;;;;;3.67;1.10;;;;;;;13.20;34.21;100281.06;10247420;28;20495;-76
2023/03/31 11:35:47;;;;;;;4.38;1.70;;;;;;;13.49;34.75;100373.59;10247966;28;20130;-76
2023/03/31 11:40:58;;;;;;;4.22;1.30;;;;;;;12.95;34.53;100353.34;10236064;28;20047;-75
2023/03/31 11:46:22;;;;;;;4.93;1.50;;;;;;;13.71;34.95;100347.78;10246974;28;20092;-76
2023/03/31 11:51:37;;;;;;;3.92;1.30;;;;;;;14.59;32.93;100375.16;10246695;28;20418;-76
2023/03/31 11:56:40;;;;;;;4.22;1.30;;;;;;;14.84;33.15;100378.22;10247180;28;20043;-76
2023/03/31 12:01:48;;;;;;;3.40;1.38;;;;;;;14.34;33.75;100372.84;10245897;28;20100;-77
2023/03/31 12:06:51;;;;;;;2.05;0.95;;;;;;;13.89;34.03;100355.38;10247203;28;20149;-76
2023/03/31 12:11:55;;;;;;;6.20;1.40;;;;;;;12.76;34.16;100234.75;10240333;28;20566;-76
2023/03/31 12:17:12;;;;;;;3.72;1.10;;;;;;;13.40;33.98;100361.34;10229701;28;20062;-78
2023/03/31 12:22:19;;;;;;;2.10;0.90;;;;;;;13.21;33.15;100360.88;10206404;29;20056;-75
2023/03/31 12:27:36;;;;;;;3.80;0.88;;;;;;;12.95;33.72;100216.50;10206521;29;20131;-76
2023/03/31 12:32:42;;;;;;;2.20;0.95;;;;;;;14.21;33.02;100342.50;10205977;29;20134;-75
2023/03/31 12:38:07;;;;;;;3.85;1.48;;;;;;;14.48;32.95;100346.22;10206575;29;20043;-75
2023/03/31 12:43:20;;;;;;;2.53;0.93;;;;;;;14.61;32.13;100357.91;10205885;29;20122;-76
2023/03/31 12:49:11;;;;;;;2.35;1.08;;;;;;;14.41;32.33;100348.03;10216984;29;20510;-78
2023/03/31 12:54:30;;;;;;;2.67;1.20;;;;;;;14.53;32.60;100351.88;10190520;28;20051;-78
2023/03/31 12:59:39;;;;;;;3.53;1.00;;;;;;;14.02;32.02;100301.25;10210578;29;20055;-76
2023/03/31 13:04:41;;;;;;;2.90;1.15;;;;;;;14.05;32.45;100328.41;10226043;28;20039;-75
2023/03/31 13:09:45;;;;;;;3.22;0.93;;;;;;;14.33;32.82;100362.38;10240903;28;20468;-78
2023/03/31 13:14:50;;;;;;;2.33;0.83;;;;;;;14.18;32.06;100350.91;10230926;28;20051;-77
2023/03/31 13:19:52;;;;;;;6.28;1.70;;;;;;;13.71;32.30;100291.72;10205878;29;20139;-76
2023/03/31 13:24:53;;;;;;;3.83;0.82;;;;;;;13.69;32.90;100349.78;10205426;29;20407;-76
2023/03/31 13:29:55;;;;;;;14.70;1.23;;;;;;;13.20;33.13;100342.41;10204888;29;20048;-76
2023/03/31 13:35:02;;;;;;;10.00;2.13;;;;;;;13.37;33.01;100349.22;10205186;29;20036;-77
2023/03/31 13:40:25;;;;;;;5.40;1.20;;;;;;;13.38;33.24;100364.22;10207497;29;20043;-76
2023/03/31 13:45:32;;;;;;;2.08;0.90;;;;;;;13.27;32.68;100362.00;10218619;29;20043;-77
2023/03/31 13:51:00;;;;;;;3.60;0.82;;;;;;;12.96;32.35;100371.00;10218895;29;20055;-76
2023/03/31 13:56:23;;;;;;;3.00;1.02;;;;;;;12.72;32.88;100377.41;10228075;29;20057;-78
2023/03/31 14:02:02;;;;;;;4.30;0.90;;;;;;;12.46;33.59;100388.44;10218135;29;20054;-74
2023/03/31 14:07:11;;;;;;;2.50;0.80;;;;;;;12.14;34.38;100397.50;10225387;29;20420;-76
2023/03/31 14:12:28;;;;;;;2.30;0.75;;;;;;;12.02;34.68;100385.59;10246636;28;20415;-76
2023/03/31 14:17:32;;;;;;;1.63;0.68;;;;;;;11.86;35.29;100394.53;10210176;29;20064;-76
2023/03/31 14:22:55;;;;;;;3.78;0.77;;;;;;;12.01;35.99;100398.09;10264359;28;20049;-76
2023/03/31 14:28:45;;;;;;;3.10;0.90;;;;;;;12.07;35.99;100408.03;10350619;28;20077;-76
2023/03/31 14:34:05;;;;;;;5.35;0.88;;;;;;;11.96;35.46;100388.97;10350014;28;20048;-76
2023/03/31 14:39:09;;;;;;;7.70;1.00;;;;;;;11.38;35.89;100340.53;10341994;28;20088;-76
2023/03/31 14:44:14;;;;;;;;;;;;;;;11.74;36.70;100403.88;10350960;28;20063;-76
2023/03/31 14:49:27;;;;;;;5.00;0.82;;;;;;;11.29;36.99;100403.56;10349758;28;20024;-76
2023/03/31 14:54:37;;;;;;;1.88;0.60;;;;;;;11.11;37.58;100414.41;10342421;28;20403;-76
2023/03/31 14:59:38;;;;;;;5.70;0.70;;;;;;;10.86;37.94;100421.59;10311583;28;20373;-76
2023/03/31 15:04:43;;;;;;;6.15;0.68;;;;;;;10.03;38.85;100340.22;10226610;29;20403;-77
2023/03/31 15:09:49;;;;;;;3.38;1.00;;;;;;;10.21;39.44;100432.16;10208953;29;20043;-76
2023/03/31 15:14:54;;;;;;;4.32;0.90;;;;;;;10.05;40.23;100424.97;10208839;29;20043;-76
2023/03/31 15:19:57;;;;;;;11.50;1.30;;;;;;;9.76;40.91;100450.13;10207358;29;20063;-76
2023/03/31 15:24:58;;;;;;;14.47;1.30;;;;;;;9.37;41.31;100439.19;10208518;29;20048;-76
2023/03/31 15:30:03;;;;;;;6.05;0.90;;;;;;;9.20;41.46;100450.69;10208448;29;20295;-76
2023/03/31 15:35:05;;;;;;;4.82;0.90;;;;;;;8.64;41.35;100397.94;10207730;29;20047;-76
2023/03/31 15:40:26;;;;;;;7.72;1.60;;;;;;;8.72;42.22;100433.44;10207514;29;20074;-77
2023/03/31 15:45:30;;;;;;;5.00;1.63;;;;;;;7.82;42.64;100309.09;10207804;29;20035;-77
2023/03/31 15:50:32;;;;;;;6.88;1.08;;;;;;;8.41;42.83;100447.94;10207930;29;20527;-77
2023/03/31 15:55:41;;;;;;;5.10;0.80;;;;;;;7.78;43.92;100387.06;10242414;29;20134;-76
2023/03/31 16:00:44;;;;;;;2.47;0.70;;;;;;;8.12;43.41;100477.19;10247077;28;20402;-76
2023/03/31 16:06:00;;;;;;;1.60;0.60;;;;;;;7.87;44.38;100462.88;10225783;28;20035;-76
2023/03/31 16:11:06;;;;;;;3.50;0.88;;;;;;;7.57;44.99;100465.78;10221458;29;20054;-76
2023/03/31 16:16:11;;;;;;;4.63;0.93;;;;;;;7.26;45.10;100479.25;10224649;29;20617;-76
2023/03/31 16:21:15;;;;;;;2.90;0.90;;;;;;;7.10;45.86;100495.69;10214978;28;20066;-76
2023/03/31 16:26:21;;;;;;;4.80;0.90;;;;;;;6.96;46.91;100511.97;10206373;29;20055;-76
2023/03/31 16:31:35;;;;;;;3.58;1.10;;;;;;;6.57;47.30;100473.22;10221553;29;20051;-76
2023/03/31 16:36:36;;;;;;;7.35;1.67;;;;;;;6.67;46.91;100518.13;10207160;29;20122;-76
2023/03/31 16:41:37;;;;;;;5.47;1.80;;;;;;;6.52;48.19;100530.03;10207331;29;20044;-76
2023/03/31 16:46:38;;;;;;;3.85;1.58;;;;;;;6.40;48.42;100530.16;10204978;29;20035;-79
2023/03/31 16:51:39;;;;;;;3.85;1.40;;;;;;;6.21;48.92;100530.13;10204325;29;20484;-76
2023/03/31 16:56:40;;;;;;;4.13;1.17;;;;;;;6.22;49.46;100536.22;10241807;29;20139;-77
2023/03/31 17:01:41;;;;;;;4.80;1.42;;;;;;;5.91;49.26;100499.31;10259608;28;20043;-77
2023/03/31 17:06:42;;;;;;;3.78;1.33;;;;;;;6.11;50.23;100532.72;10245330;28;20055;-77
2023/03/31 17:11:43;;;;;;;4.13;1.60;;;;;;;6.03;50.73;100535.19;10245106;28;20051;-78
2023/03/31 17:16:44;;;;;;;4.70;1.38;;;;;;;5.95;50.83;100548.22;10249945;28;20035;-77
2023/03/31 17:21:44;;;;;;;5.07;1.60;;;;;;;5.32;50.98;100450.81;10252513;28;20491;-78
2023/03/31 17:26:45;;;;;;;4.00;1.67;;;;;;;5.66;51.61;100519.09;10226124;28;20048;-77
2023/03/31 17:31:46;;;;;;;5.18;1.50;;;;;;;5.68;52.54;100539.06;10248632;29;20043;-77
2023/03/31 17:36:49;;;;;;;4.75;1.60;;;;;;;5.59;52.78;100537.19;10211420;29;20504;-77
2023/03/31 17:41:49;;;;;;;3.25;1.35;;;;;;;5.35;52.61;100534.84;10223655;29;20046;-79
2023/03/31 17:46:50;;;;;;;3.35;1.65;;;;;;;5.12;53.08;100523.63;10249883;29;20047;-78
2023/03/31 17:51:52;;;;;;;7.05;1.55;;;;;;;4.86;53.68;100502.09;10249521;29;20572;-78
2023/03/31 17:56:53;;;;;;;2.78;1.55;;;;;;;4.92;53.72;100519.19;10251025;28;20066;-77
2023/03/31 18:01:54;;;;;;;4.95;1.63;;;;;;;4.55;54.31;100466.97;10250937;28;20096;-78
2023/03/31 18:06:55;;;;;;;4.25;2.00;;;;;;;4.66;54.84;100468.69;10251473;28;20526;-78
2023/03/31 18:11:57;;;;;;;5.35;2.20;;;;;;;4.92;55.21;100509.50;10249668;28;20039;-78
2023/03/31 18:16:58;;;;;;;6.38;2.55;;;;;;;4.97;55.38;100527.53;10250258;28;20059;-77
2023/03/31 18:21:59;;;;;;;4.60;2.55;;;;;;;4.60;55.58;100485.00;10249443;28;20039;-78
2023/03/31 18:27:00;;;;;;;5.18;2.25;;;;;;;4.53;55.81;100503.91;10242716;28;20101;-77
2023/03/31 18:32:01;;;;;;;5.70;2.00;;;;;;;4.44;55.78;100509.94;10250501;28;20039;-77
2023/03/31 18:37:02;;;;;;;3.20;1.58;;;;;;;4.39;56.19;100517.34;10249783;28;20043;-77
2023/03/31 18:42:04;;;;;;;4.70;1.50;;;;;;;3.95;56.35;100448.16;10215995;28;20043;-76
2023/03/31 18:47:05;;;;;;;5.80;1.83;;;;;;;4.50;56.91;100519.94;10210447;29;20458;-77
2023/03/31 18:52:06;;;;;;;11.30;2.67;;;;;;;4.03;56.66;100426.50;10209772;29;20048;-76
2023/03/31 18:57:07;;;;;;;10.18;3.28;;;;;;;4.46;57.94;100530.84;10224286;28;20043;-76
2023/03/31 19:02:11;;;;;;;9.77;2.78;;;;;;;3.78;57.93;100427.63;10209947;29;20511;-76
2023/03/31 19:07:12;;;;;;;;;;;;;;;4.50;57.31;100538.38;10209580;29;20044;-76
2023/03/31 19:12:14;;;;;;;4.20;2.05;;;;;;;4.07;57.62;100515.50;10208282;29;20025;-76
2023/03/31 19:17:16;;;;;;;5.30;2.22;;;;;;;3.95;57.59;100507.75;10208725;29;20056;-76
2023/03/31 19:22:17;;;;;;;5.50;2.13;;;;;;;4.00;57.72;100545.03;10208681;29;20051;-77
2023/03/31 19:27:18;;;;;;;5.05;1.95;;;;;;;3.53;58.33;100508.38;10208654;29;20059;-77
2023/03/31 19:32:19;;;;;;;12.13;2.03;;;;;;;3.53;58.98;100539.91;10211706;29;20054;-78
2023/03/31 19:37:20;;;;;;;4.30;2.35;;;;;;;3.19;58.86;100492.56;10235869;28;20500;-77
2023/03/31 19:42:20;;;;;;;17.73;3.47;;;;;;;3.54;59.12;100562.56;10246055;28;20047;-77
2023/03/31 19:47:21;;;;;;;8.13;2.42;;;;;;;3.36;59.55;100564.81;10247488;28;20455;-77
2023/03/31 19:52:22;;;;;;;6.82;2.05;;;;;;;3.30;59.99;100560.03;10246474;28;20113;-77
2023/03/31 19:57:22;;;;;;;9.75;2.50;;;;;;;3.27;60.39;100551.56;10248168;28;20047;-77
2023/03/31 20:02:23;;;;;;;12.00;2.13;;;;;;;3.38;60.04;100559.44;10239273;28;20053;-77
2023/03/31 20:07:24;;;;;;;4.28;2.03;;;;;;;2.83;60.48;100471.75;10246405;28;20047;-77
2023/03/31 20:12:25;;;;;;;10.85;2.40;;;;;;;3.33;60.41;100553.72;10244385;28;20074;-77
2023/03/31 20:17:26;;;;;;;4.68;2.35;;;;;;;3.10;60.45;100521.31;10206682;29;20105;-77
2023/03/31 20:22:27;;;;;;;6.97;2.10;;;;;;;3.03;60.85;100526.19;10207615;29;20122;-77
2023/03/31 20:27:27;;;;;;;3.63;2.03;;;;;;;3.01;61.29;100538.59;10206818;29;20051;-77
2023/03/31 20:32:28;;;;;;;8.82;2.10;;;;;;;2.94;61.36;100532.97;10206279;29;20481;-77
2023/03/31 20:37:29;;;;;;;4.72;2.20;;;;;;;2.81;61.77;100531.34;10207730;29;20054;-77
2023/03/31 20:42:30;;;;;;;4.00;2.05;;;;;;;2.81;61.99;100516.44;10222815;28;20043;-77
2023/03/31 20:47:33;;;;;;;8.00;2.05;;;;;;;2.38;62.24;100456.66;10223997;29;20051;-77
2023/03/31 20:52:34;;;;;;;5.35;2.20;;;;;;;3.02;62.43;100582.25;10215739;29;20048;-77
2023/03/31 20:57:35;;;;;;;7.78;2.47;;;;;;;2.88;62.29;100569.31;10252957;28;20069;-77
2023/03/31 21:02:37;;;;;;;4.72;2.00;;;;;;;2.68;62.78;100563.72;10252857;28;20118;-77
2023/03/31 21:07:38;;;;;;;5.40;2.20;;;;;;;2.57;62.79;100519.09;10242821;28;20471;-77
2023/03/31 21:12:39;;;;;;;5.47;2.05;;;;;;;2.11;62.83;100428.06;10212106;29;20127;-77
2023/03/31 21:17:40;;;;;;;4.70;1.92;;;;;;;2.33;62.96;100468.44;10212958;29;20086;-76
2023/03/31 21:22:41;;;;;;;7.90;2.00;;;;;;;2.88;63.04;100569.31;10211991;29;20048;-76
2023/03/31 21:27:42;;;;;;;3.83;1.88;;;;;;;2.40;63.11;100478.38;10210825;29;20043;-77
2023/03/31 21:32:43;;;;;;;3.50;1.75;;;;;;;2.88;63.11;100551.78;10211407;29;20134;-76
2023/03/31 21:37:44;;;;;;;9.45;1.90;;;;;;;2.92;63.01;100570.75;10212069;29;20039;-76
2023/03/31 21:42:44;;;;;;;4.25;2.17;;;;;;;2.77;62.99;100572.72;10211668;28;20051;-75
2023/03/31 21:47:45;;;;;;;5.35;1.83;;;;;;;2.74;63.07;100572.94;10227072;29;20050;-76
2023/03/31 21:52:46;;;;;;;8.40;2.13;;;;;;;2.83;63.33;100563.56;10211387;29;20554;-76
2023/03/31 21:57:47;;;;;;;4.57;2.28;;;;;;;2.64;62.76;100540.47;10210703;29;20044;-77
2023/03/31 22:02:48;;;;;;;8.55;2.40;;;;;;;2.70;63.05;100561.84;10209488;29;20512;-76
2023/03/31 22:07:50;;;;;;;5.53;2.10;;;;;;;2.66;62.67;100552.53;10211397;29;20044;-77
2023/03/31 22:12:51;;;;;;;3.42;1.60;;;;;;;2.33;62.98;100528.75;10210869;29;20102;-76
2023/03/31 22:17:52;;;;;;;3.08;1.40;;;;;;;2.40;63.00;100538.69;10210520;29;20113;-76
2023/03/31 22:22:53;;;;;;;3.10;1.52;;;;;;;2.38;63.30;100539.75;10209993;29;20040;-76
2023/03/31 22:27:53;;;;;;;3.58;1.90;;;;;;;2.33;63.00;100550.53;10210085;29;20424;-76
2023/03/31 22:32:54;;;;;;;5.95;2.00;;;;;;;2.15;63.78;100541.38;10210671;28;20043;-76
2023/03/31 22:37:55;;;;;;;5.47;2.03;;;;;;;2.15;64.40;100576.28;10209718;29;20071;-76
2023/03/31 22:42:57;;;;;;;5.60;2.20;;;;;;;1.95;64.99;100575.06;10209501;29;20071;-76
2023/03/31 22:47:58;;;;;;;5.40;1.80;;;;;;;1.59;65.30;100539.19;10210656;28;20050;-76
2023/03/31 22:52:59;;;;;;;6.45;2.33;;;;;;;1.69;65.98;100565.56;10209824;29;20070;-76
2023/03/31 22:58:00;;;;;;;5.78;2.13;;;;;;;1.60;66.09;100559.16;10209497;28;20071;-76
2023/03/31 23:03:01;;;;;;;7.75;2.55;;;;;;;1.58;66.19;100561.88;10209412;29;20054;-76
2023/03/31 23:08:02;;;;;;;7.75;2.95;;;;;;;1.57;66.27;100581.16;10208664;29;20043;-75
2023/03/31 23:13:04;;;;;;;7.50;3.15;;;;;;;0.86;66.78;100477.78;10222986;29;20098;-76
2023/03/31 23:18:05;;;;;;;7.30;2.95;;;;;;;0.74;67.43;100493.44;10208496;28;20488;-76
2023/03/31 23:23:06;;;;;;;5.45;3.03;;;;;;;1.04;67.78;100548.13;10208747;29;20561;-76
2023/03/31 23:28:07;;;;;;;4.80;2.70;;;;;;;0.73;68.18;100494.41;10208746;29;20122;-76